Time;durP1;ratioP1;P1;durP2;ratioP2;P2;SDS_P1;SDS_P2;PMS_P1;PMS_P2;Temp;Humidity;BMP_temperature;BMP_pressure;BME280_temperature;BME280_humidity;BME280_pressure;Samples;Min_cycle;Max_cycle;Signal;HPM_P1;HPM_P2
2022/12/08 00:10:26;;;;;;;3.35;2.20;;;;;;;;;;10024864;29;20053;-84
2022/12/08 00:15:49;;;;;;;3.28;2.50;;;;;;;;;;10007174;29;20521;-85
2022/12/08 00:20:56;;;;;;;3.83;2.47;;;;;;;;;;10009918;29;20049;-84
2022/12/08 00:26:03;;;;;;;3.00;2.50;;;;;;;;;;10025434;29;20683;-84
2022/12/08 00:31:10;;;;;;;3.53;2.25;;;;;;;;;;10009376;29;20116;-84
2022/12/08 00:36:16;;;;;;;2.92;2.10;;;;;;;;;;10023848;29;20799;-84
2022/12/08 00:42:10;;;;;;;5.28;2.75;;;;;;;;;;10025170;29;20057;-84
2022/12/08 00:46:47;;;;;;;4.32;2.78;;;;;;;;;;10022168;29;20270;-84
2022/12/08 00:51:55;;;;;;;3.83;2.58;;;;;;;;;;10022405;29;20104;-85
2022/12/08 00:56:58;;;;;;;4.25;2.45;;;;;;;;;;10023687;29;20545;-85
2022/12/08 01:02:02;;;;;;;3.42;2.55;;;;;;;;;;10026191;29;20298;-89
2022/12/08 01:07:07;;;;;;;3.58;2.75;;;;;;;;;;10037474;29;20421;-87
2022/12/08 01:12:10;;;;;;;3.70;2.67;;;;;;;;;;10028815;29;20152;-91
2022/12/08 01:17:17;;;;;;;4.00;2.45;;;;;;;;;;10030724;29;20490;-87
2022/12/08 01:22:22;;;;;;;4.40;3.20;;;;;;;;;;10028355;29;20092;-87
2022/12/08 01:27:26;;;;;;;4.97;3.33;;;;;;;;;;10014239;29;20212;-86
2022/12/08 01:32:29;;;;;;;3.60;2.67;;;;;;;;;;10026690;29;20600;-85
2022/12/08 01:37:35;;;;;;;2.65;2.17;;;;;;;;;;10012419;29;20057;-89
2022/12/08 01:42:38;;;;;;;2.55;1.73;;;;;;;;;;10033986;29;20122;-89
2022/12/08 01:47:45;;;;;;;2.75;1.90;;;;;;;;;;10015120;29;20328;-87
2022/12/08 01:52:55;;;;;;;3.30;2.00;;;;;;;;;;10028708;29;20049;-87
2022/12/08 01:58:03;;;;;;;2.75;1.70;;;;;;;;;;10033159;29;20053;-85
2022/12/08 02:03:11;;;;;;;2.65;1.80;;;;;;;;;;10014668;29;20145;-84
2022/12/08 02:08:16;;;;;;;2.60;1.90;;;;;;;;;;10027187;29;20057;-84
2022/12/08 02:13:21;;;;;;;4.03;2.45;;;;;;;;;;10030723;29;20596;-84
2022/12/08 02:18:40;;;;;;;5.15;2.53;;;;;;;;;;10028727;29;20049;-85
2022/12/08 02:23:54;;;;;;;4.72;3.40;;;;;;;;;;10030426;29;20088;-87
2022/12/08 02:29:31;;;;;;;5.70;3.90;;;;;;;;;;10026224;29;20064;-84
2022/12/08 02:34:43;;;;;;;4.90;2.95;;;;;;;;;;10028365;29;20064;-84
2022/12/08 02:39:55;;;;;;;5.18;3.25;;;;;;;;;;10028846;29;20050;-84
2022/12/08 02:45:03;;;;;;;4.22;2.78;;;;;;;;;;10028812;29;20045;-86
2022/12/08 02:50:12;;;;;;;5.97;4.25;;;;;;;;;;10037335;29;20049;-87
2022/12/08 02:55:24;;;;;;;5.03;3.92;;;;;;;;;;10034880;29;20056;-84
2022/12/08 03:00:33;;;;;;;5.82;3.33;;;;;;;;;;10027084;29;20646;-84
2022/12/08 03:05:59;;;;;;;3.55;2.60;;;;;;;;;;10029077;29;20509;-84
2022/12/08 03:11:09;;;;;;;3.72;2.22;;;;;;;;;;10020992;29;20075;-87
2022/12/08 03:16:16;;;;;;;1.98;1.77;;;;;;;;;;10030887;29;20136;-88
2022/12/08 03:21:22;;;;;;;2.70;1.77;;;;;;;;;;10034837;29;20136;-83
2022/12/08 03:26:31;;;;;;;2.95;1.83;;;;;;;;;;10024485;29;20243;-84
2022/12/08 03:31:40;;;;;;;1.73;1.33;;;;;;;;;;10023621;29;20057;-84
2022/12/08 03:36:46;;;;;;;2.25;1.75;;;;;;;;;;10025008;29;20071;-84
2022/12/08 03:41:49;;;;;;;3.33;1.58;;;;;;;;;;10023923;29;20049;-84
2022/12/08 03:46:52;;;;;;;2.58;1.55;;;;;;;;;;10033070;29;20041;-87
2022/12/08 03:51:57;;;;;;;3.33;2.35;;;;;;;;;;10037147;29;20065;-86
2022/12/08 03:57:01;;;;;;;2.55;1.70;;;;;;;;;;10044428;29;20458;-87
2022/12/08 04:02:04;;;;;;;1.90;1.65;;;;;;;;;;10021911;29;20083;-90
2022/12/08 04:07:09;;;;;;;2.63;1.75;;;;;;;;;;10038500;29;20153;-86
2022/12/08 04:12:13;;;;;;;1.63;1.52;;;;;;;;;;10009871;29;20064;-83
2022/12/08 04:17:17;;;;;;;2.67;1.70;;;;;;;;;;10022349;29;20049;-84
2022/12/08 04:22:22;;;;;;;2.10;1.52;;;;;;;;;;10024025;29;20064;-85
2022/12/08 04:27:25;;;;;;;1.88;1.50;;;;;;;;;;10025506;29;20474;-84
2022/12/08 04:32:29;;;;;;;1.80;1.33;;;;;;;;;;10016943;29;20057;-84
2022/12/08 04:37:34;;;;;;;2.08;1.70;;;;;;;;;;10020860;29;20052;-84
2022/12/08 04:42:38;;;;;;;2.58;1.63;;;;;;;;;;10024172;29;20090;-85
2022/12/08 04:47:42;;;;;;;1.90;1.40;;;;;;;;;;10030611;29;20045;-87
2022/12/08 04:52:46;;;;;;;2.65;1.40;;;;;;;;;;10030368;29;20149;-86
2022/12/08 04:57:50;;;;;;;2.20;1.40;;;;;;;;;;10040313;29;20060;-90
2022/12/08 05:02:54;;;;;;;1.85;1.45;;;;;;;;;;10038868;29;20065;-87
2022/12/08 05:07:59;;;;;;;4.22;1.63;;;;;;;;;;10018476;29;20537;-87
2022/12/08 05:13:02;;;;;;;2.47;1.50;;;;;;;;;;10027953;29;20482;-91
2022/12/08 05:18:06;;;;;;;1.48;1.27;;;;;;;;;;10033017;29;20045;-86
2022/12/08 05:23:11;;;;;;;2.00;1.52;;;;;;;;;;10034618;29;20518;-86
2022/12/08 05:28:15;;;;;;;1.38;1.27;;;;;;;;;;10039332;29;20081;-86
2022/12/08 05:33:39;;;;;;;1.70;1.27;;;;;;;;;;10040546;29;20348;-85
2022/12/08 05:38:44;;;;;;;2.33;1.50;;;;;;;;;;10042376;29;20068;-85
2022/12/08 05:43:48;;;;;;;1.90;1.45;;;;;;;;;;10020127;29;20061;-83
2022/12/08 05:48:51;;;;;;;2.30;1.73;;;;;;;;;;10027467;29;20056;-87
2022/12/08 05:53:57;;;;;;;5.13;3.17;;;;;;;;;;10022823;29;20053;-85
2022/12/08 05:59:01;;;;;;;5.07;3.67;;;;;;;;;;10019402;29;20599;-84
2022/12/08 06:04:05;;;;;;;4.72;3.28;;;;;;;;;;10021390;29;21075;-85
2022/12/08 06:09:11;;;;;;;6.03;4.00;;;;;;;;;;10023345;29;20045;-85
2022/12/08 06:14:14;;;;;;;6.43;4.22;;;;;;;;;;10030060;29;20068;-84
2022/12/08 06:19:18;;;;;;;5.82;3.50;;;;;;;;;;10022184;29;20141;-85
2022/12/08 06:24:23;;;;;;;3.20;2.40;;;;;;;;;;10023410;29;20061;-84
2022/12/08 06:29:26;;;;;;;3.92;2.28;;;;;;;;;;10021186;29;20145;-85
2022/12/08 06:34:30;;;;;;;5.90;3.67;;;;;;;;;;10038154;29;20059;-87
2022/12/08 06:39:35;;;;;;;3.60;2.60;;;;;;;;;;10030955;29;20137;-87
2022/12/08 06:44:39;;;;;;;3.42;2.47;;;;;;;;;;10040104;29;20148;-88
2022/12/08 06:49:42;;;;;;;6.78;2.30;;;;;;;;;;10048145;29;20054;-87
2022/12/08 06:54:49;;;;;;;6.25;3.40;;;;;;;;;;10027658;29;20054;-84
2022/12/08 06:59:53;;;;;;;6.53;3.35;;;;;;;;;;10028994;29;20525;-84
2022/12/08 07:04:57;;;;;;;4.72;3.20;;;;;;;;;;10030133;29;20049;-84
2022/12/08 07:10:02;;;;;;;4.40;2.90;;;;;;;;;;10020693;29;20063;-84
2022/12/08 07:15:08;;;;;;;4.40;2.67;;;;;;;;;;10027785;29;20068;-83
2022/12/08 07:20:12;;;;;;;5.35;3.20;;;;;;;;;;10028376;29;20061;-84
2022/12/08 07:25:17;;;;;;;4.00;2.30;;;;;;;;;;10026104;29;20140;-84
2022/12/08 07:30:22;;;;;;;5.47;3.65;;;;;;;;;;10024385;29;20530;-84
2022/12/08 07:35:26;;;;;;;4.57;3.40;;;;;;;;;;10023907;29;20464;-83
2022/12/08 07:40:31;;;;;;;4.00;2.83;;;;;;;;;;10015475;29;20045;-84
2022/12/08 07:45:34;;;;;;;4.55;2.67;;;;;;;;;;10024608;29;20105;-84
2022/12/08 07:50:38;;;;;;;5.00;3.60;;;;;;;;;;10024498;29;20326;-82
2022/12/08 07:55:44;;;;;;;5.15;3.17;;;;;;;;;;10023638;29;20414;-84
2022/12/08 08:00:48;;;;;;;2.75;2.33;;;;;;;;;;10021267;29;20057;-85
2022/12/08 08:05:52;;;;;;;3.15;1.73;;;;;;;;;;10023775;29;20051;-84
2022/12/08 08:10:57;;;;;;;4.68;2.85;;;;;;;;;;10016330;29;20454;-84
2022/12/08 08:16:04;;;;;;;4.97;2.95;;;;;;;;;;10034475;29;20057;-88
2022/12/08 08:21:08;;;;;;;6.20;3.72;;;;;;;;;;10032960;29;20056;-88
2022/12/08 08:26:32;;;;;;;3.28;2.13;;;;;;;;;;10092160;29;20462;-87
2022/12/08 08:31:36;;;;;;;4.32;3.08;;;;;;;;;;10050474;29;20199;-85
2022/12/08 08:36:40;;;;;;;5.97;3.78;;;;;;;;;;10008220;29;20050;-85
2022/12/08 08:41:44;;;;;;;2.67;2.05;;;;;;;;;;10007417;29;20489;-85
2022/12/08 08:46:48;;;;;;;4.95;2.85;;;;;;;;;;10024124;29;20046;-85
2022/12/08 08:51:51;;;;;;;4.32;3.00;;;;;;;;;;10020935;29;20148;-84
2022/12/08 08:56:57;;;;;;;5.85;3.17;;;;;;;;;;10020025;29;20051;-85
2022/12/08 09:02:01;;;;;;;4.07;2.40;;;;;;;;;;10019810;29;20057;-85
2022/12/08 09:07:04;;;;;;;3.88;2.45;;;;;;;;;;10021415;29;20110;-85
2022/12/08 09:12:13;;;;;;;4.65;2.30;;;;;;;;;;10022765;29;20050;-84
2022/12/08 09:17:17;;;;;;;3.33;2.65;;;;;;;;;;10005641;29;20073;-85
2022/12/08 09:22:20;;;;;;;3.75;2.97;;;;;;;;;;10019225;29;20471;-85
2022/12/08 09:27:25;;;;;;;3.60;2.80;;;;;;;;;;10020750;29;20724;-85
2022/12/08 09:32:29;;;;;;;2.97;1.90;;;;;;;;;;10020339;29;20562;-84
2022/12/08 09:37:32;;;;;;;2.45;1.77;;;;;;;;;;10019764;29;20528;-85
2022/12/08 09:42:44;;;;;;;4.35;2.42;;;;;;;;;;10019782;29;20768;-84
2022/12/08 09:47:58;;;;;;;3.58;2.20;;;;;;;;;;10019300;29;20138;-84
2022/12/08 09:53:06;;;;;;;3.70;2.65;;;;;;;;;;10019609;29;20053;-85
2022/12/08 09:58:20;;;;;;;3.40;2.17;;;;;;;;;;10019084;29;20057;-85
2022/12/08 10:03:27;;;;;;;3.85;1.90;;;;;;;;;;10020121;29;20053;-85
2022/12/08 10:08:40;;;;;;;3.08;2.15;;;;;;;;;;10019953;29;20046;-84
2022/12/08 10:13:51;;;;;;;2.60;1.73;;;;;;;;;;10017601;29;20453;-86
2022/12/08 10:19:01;;;;;;;2.30;1.80;;;;;;;;;;10018056;29;20056;-84
2022/12/08 10:24:11;;;;;;;1.90;1.65;;;;;;;;;;10011864;29;20057;-84
2022/12/08 10:29:16;;;;;;;3.28;2.17;;;;;;;;;;10025458;29;20581;-85
2022/12/08 10:34:23;;;;;;;4.38;2.90;;;;;;;;;;10032204;29;20126;-87
2022/12/08 10:39:31;;;;;;;3.75;2.75;;;;;;;;;;10073583;29;20613;-87
2022/12/08 10:44:48;;;;;;;3.70;2.30;;;;;;;;;;10058027;29;20076;-87
2022/12/08 10:50:09;;;;;;;5.47;2.90;;;;;;;;;;10071631;29;20073;-89
2022/12/08 10:55:17;;;;;;;5.30;2.55;;;;;;;;;;10043548;29;20057;-86
2022/12/08 11:00:25;;;;;;;3.47;2.30;;;;;;;;;;10076557;29;20518;-86
2022/12/08 11:05:33;;;;;;;4.30;3.15;;;;;;;;;;10033003;29;20153;-84
2022/12/08 11:10:42;;;;;;;4.82;3.05;;;;;;;;;;10024924;29;20728;-85
2022/12/08 11:15:49;;;;;;;5.60;2.97;;;;;;;;;;10025967;29;20137;-90
2022/12/08 11:21:01;;;;;;;7.38;3.47;;;;;;;;;;10057352;29;20069;-87
2022/12/08 11:26:12;;;;;;;4.30;3.40;;;;;;;;;;10054881;29;20085;-88
2022/12/08 11:31:27;;;;;;;4.80;3.15;;;;;;;;;;10060556;29;20145;-87
2022/12/08 11:36:33;;;;;;;5.97;3.25;;;;;;;;;;10058097;29;20784;-86
2022/12/08 11:41:39;;;;;;;4.77;3.23;;;;;;;;;;10075063;29;20055;-86
2022/12/08 11:46:49;;;;;;;3.65;3.10;;;;;;;;;;10075190;29;20066;-83
2022/12/08 11:51:58;;;;;;;3.78;2.95;;;;;;;;;;10025710;29;20053;-84
2022/12/08 11:57:02;;;;;;;2.65;2.05;;;;;;;;;;10023154;29;20084;-84
2022/12/08 12:02:15;;;;;;;4.93;3.58;;;;;;;;;;10008269;29;20077;-84
2022/12/08 12:07:44;;;;;;;3.83;2.78;;;;;;;;;;10002695;29;20086;-84
2022/12/08 12:13:00;;;;;;;3.03;2.20;;;;;;;;;;10023495;29;20649;-84
2022/12/08 12:18:11;;;;;;;7.13;3.17;;;;;;;;;;10022810;29;20060;-84
2022/12/08 12:23:22;;;;;;;3.78;2.33;;;;;;;;;;10012010;29;20061;-84
2022/12/08 12:28:29;;;;;;;3.58;2.40;;;;;;;;;;10011419;29;20046;-87
2022/12/08 12:33:36;;;;;;;3.40;2.58;;;;;;;;;;10073596;29;20057;-86
2022/12/08 12:39:05;;;;;;;3.95;2.65;;;;;;;;;;10078450;29;20107;-86
2022/12/08 12:44:38;;;;;;;3.67;2.60;;;;;;;;;;10024978;29;20064;-85
2022/12/08 12:50:08;;;;;;;4.55;2.63;;;;;;;;;;10018723;29;20082;-84
2022/12/08 12:55:49;;;;;;;2.65;2.10;;;;;;;;;;10022073;29;20589;-85
2022/12/08 13:01:32;;;;;;;3.65;2.60;;;;;;;;;;10048579;29;20432;-88
2022/12/08 13:06:40;;;;;;;3.72;2.58;;;;;;;;;;10005572;29;20098;-83
2022/12/08 13:11:51;;;;;;;5.00;3.20;;;;;;;;;;10022251;29;20049;-84
2022/12/08 13:16:57;;;;;;;6.20;3.88;;;;;;;;;;10007167;29;20060;-84
2022/12/08 13:22:03;;;;;;;5.70;3.10;;;;;;;;;;10022706;29;20045;-83
2022/12/08 13:27:31;;;;;;;1.63;1.42;;;;;;;;;;10050360;29;20140;-87
2022/12/08 13:32:58;;;;;;;3.53;2.20;;;;;;;;;;10066859;29;20144;-85
2022/12/08 13:38:29;;;;;;;5.68;2.63;;;;;;;;;;10025145;29;21348;-84
2022/12/08 13:43:38;;;;;;;3.60;2.50;;;;;;;;;;10024699;29;20088;-84
2022/12/08 13:48:54;;;;;;;4.65;2.42;;;;;;;;;;10019934;29;20049;-84
2022/12/08 13:54:22;;;;;;;3.45;1.70;;;;;;;;;;10019010;29;20061;-84
2022/12/08 13:59:46;;;;;;;2.53;1.60;;;;;;;;;;10020883;29;20046;-83
2022/12/08 14:04:50;;;;;;;3.72;2.22;;;;;;;;;;10018630;29;20514;-83
2022/12/08 14:10:20;;;;;;;2.10;1.55;;;;;;;;;;10023758;29;20060;-86
2022/12/08 14:15:26;;;;;;;3.72;2.65;;;;;;;;;;10063663;29;20061;-86
2022/12/08 14:20:34;;;;;;;2.20;1.75;;;;;;;;;;10070381;29;20581;-86
2022/12/08 14:25:50;;;;;;;1.90;1.60;;;;;;;;;;10065283;29;20063;-89
2022/12/08 14:30:56;;;;;;;1.98;1.73;;;;;;;;;;10045019;29;20698;-85
2022/12/08 14:36:00;;;;;;;1.87;1.50;;;;;;;;;;10034469;29;20053;-83
2022/12/08 14:41:07;;;;;;;2.97;1.65;;;;;;;;;;10003417;29;20401;-83
2022/12/08 14:46:21;;;;;;;2.28;1.77;;;;;;;;;;10017461;29;20634;-83
2022/12/08 14:51:30;;;;;;;2.78;2.33;;;;;;;;;;10021379;29;20048;-84
2022/12/08 14:56:38;;;;;;;3.00;2.60;;;;;;;;;;10019591;29;20049;-84
2022/12/08 15:01:42;;;;;;;2.88;1.83;;;;;;;;;;10017519;29;20045;-84
2022/12/08 15:06:50;;;;;;;2.05;1.42;;;;;;;;;;10020722;29;20108;-83
2022/12/08 15:12:02;;;;;;;3.58;2.35;;;;;;;;;;10021101;29;20137;-82
2022/12/08 15:17:28;;;;;;;3.60;2.40;;;;;;;;;;10034415;29;20060;-84
2022/12/08 15:22:33;;;;;;;2.92;2.42;;;;;;;;;;10027280;29;20079;-84
2022/12/08 15:27:39;;;;;;;3.03;2.10;;;;;;;;;;10029155;29;20623;-84
2022/12/08 15:32:51;;;;;;;2.60;2.10;;;;;;;;;;10026718;29;20049;-83
2022/12/08 15:37:54;;;;;;;2.60;2.03;;;;;;;;;;10023632;29;20580;-83
2022/12/08 15:42:59;;;;;;;2.33;2.03;;;;;;;;;;10026785;29;20050;-84
2022/12/08 15:48:03;;;;;;;2.42;2.00;;;;;;;;;;10021236;29;20061;-84
2022/12/08 15:53:13;;;;;;;3.88;2.60;;;;;;;;;;10010792;29;20056;-83
2022/12/08 15:58:21;;;;;;;3.88;2.63;;;;;;;;;;10033232;29;20616;-90
2022/12/08 16:03:45;;;;;;;4.13;2.63;;;;;;;;;;10053786;29;20590;-87
2022/12/08 16:09:15;;;;;;;3.28;2.20;;;;;;;;;;10053535;29;20086;-88
2022/12/08 16:14:20;;;;;;;2.65;2.30;;;;;;;;;;10063277;23;20267;-82
2022/12/08 16:19:44;;;;;;;2.00;1.63;;;;;;;;;;10041914;29;20057;-81
2022/12/08 16:24:47;;;;;;;2.40;1.77;;;;;;;;;;10058453;29;20081;-82
2022/12/08 16:29:54;;;;;;;1.50;1.38;;;;;;;;;;10056141;29;20061;-82
2022/12/08 16:35:00;;;;;;;2.53;1.55;;;;;;;;;;10038544;29;20121;-83
2022/12/08 16:40:05;;;;;;;2.00;1.42;;;;;;;;;;10036626;29;20060;-83
2022/12/08 16:45:12;;;;;;;2.67;1.50;;;;;;;;;;10024518;29;20053;-82
2022/12/08 16:50:18;;;;;;;1.70;1.40;;;;;;;;;;10037925;29;20121;-83
2022/12/08 16:55:21;;;;;;;4.03;1.90;;;;;;;;;;10048206;29;20256;-82
2022/12/08 17:00:29;;;;;;;4.15;2.38;;;;;;;;;;10049576;29;20393;-83
2022/12/08 17:05:32;;;;;;;4.60;2.97;;;;;;;;;;10043460;29;20625;-83
2022/12/08 17:10:38;;;;;;;5.00;2.92;;;;;;;;;;10018531;29;20064;-84
2022/12/08 17:15:44;;;;;;;4.20;3.08;;;;;;;;;;10044022;29;20129;-83
2022/12/08 17:20:47;;;;;;;4.97;3.20;;;;;;;;;;10034773;29;20140;-82
2022/12/08 17:25:58;;;;;;;3.25;2.38;;;;;;;;;;10029790;29;20298;-81
2022/12/08 17:31:11;;;;;;;3.67;2.28;;;;;;;;;;10024721;29;20053;-83
2022/12/08 17:36:16;;;;;;;2.78;2.10;;;;;;;;;;10035613;29;20068;-82
2022/12/08 17:41:20;;;;;;;3.40;2.25;;;;;;;;;;10034909;29;20057;-82
2022/12/08 17:46:25;;;;;;;3.15;2.40;;;;;;;;;;10027294;29;20325;-81
2022/12/08 17:51:29;;;;;;;5.50;2.67;;;;;;;;;;10029975;29;20042;-81
2022/12/08 17:56:32;;;;;;;3.78;2.60;;;;;;;;;;10030629;29;20063;-81
2022/12/08 18:01:37;;;;;;;4.60;2.60;;;;;;;;;;10028566;29;20078;-82
2022/12/08 18:06:41;;;;;;;3.92;2.70;;;;;;;;;;10032079;29;20092;-83
2022/12/08 18:17:03;;;;;;;4.47;2.70;;;;;;;;;;10033658;29;20616;-82
2022/12/08 18:22:07;;;;;;;3.05;2.03;;;;;;;;;;10033268;29;20073;-83
2022/12/08 18:27:11;;;;;;;2.97;2.20;;;;;;;;;;10034824;29;20053;-83
2022/12/08 18:32:21;;;;;;;2.78;2.20;;;;;;;;;;10034172;29;20053;-83
2022/12/08 18:37:24;;;;;;;2.80;2.05;;;;;;;;;;10031113;29;20213;-84
2022/12/08 18:42:31;;;;;;;3.95;2.65;;;;;;;;;;10034164;29;20046;-83
2022/12/08 18:47:38;;;;;;;3.55;2.00;;;;;;;;;;10039010;29;20061;-83
2022/12/08 18:52:42;;;;;;;2.53;1.88;;;;;;;;;;10046309;29;20905;-82
2022/12/08 18:57:45;;;;;;;2.10;1.90;;;;;;;;;;10037833;29;20109;-82
2022/12/08 19:02:55;;;;;;;3.65;2.25;;;;;;;;;;10045809;29;20413;-82
2022/12/08 19:08:04;;;;;;;2.08;1.83;;;;;;;;;;10039651;29;20417;-82
2022/12/08 19:13:11;;;;;;;2.63;1.60;;;;;;;;;;10021123;29;20049;-82
2022/12/08 19:18:15;;;;;;;;;;;;;;;;;;10036033;29;20050;-83
2022/12/08 19:23:19;;;;;;;2.47;1.75;;;;;;;;;;10019074;29;20410;-83
2022/12/08 19:28:22;;;;;;;3.20;1.95;;;;;;;;;;10034675;29;20092;-82
2022/12/08 19:33:28;;;;;;;3.42;2.22;;;;;;;;;;10035111;29;20052;-81
2022/12/08 19:44:51;;;;;;;4.57;2.43;;;;;;;;;;10033082;29;20316;-82
2022/12/08 19:49:17;;;;;;;2.10;1.30;;;;;;;;;;10043287;29;20144;-82
2022/12/08 19:54:20;;;;;;;1.40;1.30;;;;;;;;;;10035858;29;20049;-83
2022/12/08 19:59:25;;;;;;;1.40;1.27;;;;;;;;;;10035579;29;20425;-82
2022/12/08 20:04:29;;;;;;;2.22;1.20;;;;;;;;;;10036242;29;20045;-81
2022/12/08 20:09:33;;;;;;;1.60;1.15;;;;;;;;;;10019986;29;20072;-83
2022/12/08 20:14:37;;;;;;;1.10;1.00;;;;;;;;;;10037775;29;20061;-80
2022/12/08 20:19:43;;;;;;;1.93;1.47;;;;;;;;;;10030872;29;20056;-80
2022/12/08 20:24:48;;;;;;;2.28;1.20;;;;;;;;;;10033726;29;20042;-83
2022/12/08 20:29:56;;;;;;;2.55;1.70;;;;;;;;;;10045211;29;20076;-83
2022/12/08 20:35:01;;;;;;;1.90;1.60;;;;;;;;;;10035300;29;20061;-82
2022/12/08 20:40:06;;;;;;;3.92;1.80;;;;;;;;;;10029475;29;20065;-82
2022/12/08 20:45:13;;;;;;;2.50;1.77;;;;;;;;;;10035142;29;20648;-82
2022/12/08 20:50:18;;;;;;;1.63;1.50;;;;;;;;;;10033924;29;20056;-81
2022/12/08 20:55:21;;;;;;;2.70;1.70;;;;;;;;;;10042679;29;20061;-82
2022/12/08 21:00:26;;;;;;;2.15;1.70;;;;;;;;;;10017178;29;20057;-80
2022/12/08 21:05:34;;;;;;;1.92;1.60;;;;;;;;;;10031042;29;20056;-82
2022/12/08 21:10:37;;;;;;;2.22;1.63;;;;;;;;;;10032218;29;20088;-81
2022/12/08 21:15:46;;;;;;;2.75;1.80;;;;;;;;;;10037933;29;20391;-80
2022/12/08 21:21:00;;;;;;;2.40;1.75;;;;;;;;;;10029469;29;20054;-80
2022/12/08 21:26:09;;;;;;;2.90;1.83;;;;;;;;;;10036481;29;20510;-80
2022/12/08 21:31:14;;;;;;;3.90;2.17;;;;;;;;;;10013699;29;20064;-82
2022/12/08 21:36:20;;;;;;;2.88;2.13;;;;;;;;;;10027705;29;20077;-82
2022/12/08 21:46:41;;;;;;;2.38;1.88;;;;;;;;;;10029007;29;19948;-80
2022/12/08 21:51:46;;;;;;;2.83;2.22;;;;;;;;;;10029519;29;20050;-80
2022/12/08 21:56:50;;;;;;;3.63;2.13;;;;;;;;;;10031709;29;20050;-81
2022/12/08 22:01:53;;;;;;;3.78;2.70;;;;;;;;;;10021565;29;20054;-81
2022/12/08 22:06:58;;;;;;;4.82;2.90;;;;;;;;;;10026067;29;20077;-80
2022/12/08 22:12:02;;;;;;;4.75;2.85;;;;;;;;;;10025828;29;20121;-81
2022/12/08 22:17:05;;;;;;;3.85;2.83;;;;;;;;;;10018318;29;20062;-81
2022/12/08 22:22:10;;;;;;;5.40;3.30;;;;;;;;;;10010026;29;20106;-80
2022/12/08 22:27:16;;;;;;;7.05;3.78;;;;;;;;;;10031360;29;20587;-81
2022/12/08 22:32:20;;;;;;;10.73;3.88;;;;;;;;;;10043591;29;20220;-82
2022/12/08 22:37:25;;;;;;;7.72;3.50;;;;;;;;;;10036576;29;20053;-81
2022/12/08 22:42:28;;;;;;;7.43;3.45;;;;;;;;;;10041785;29;20660;-81
2022/12/08 22:47:32;;;;;;;7.15;4.03;;;;;;;;;;10025562;29;20575;-81
2022/12/08 22:52:37;;;;;;;5.30;3.45;;;;;;;;;;10039938;29;20060;-81
2022/12/08 22:57:40;;;;;;;7.15;3.70;;;;;;;;;;10024597;29;20057;-80
2022/12/08 23:02:44;;;;;;;4.63;3.10;;;;;;;;;;10027464;29;20060;-83
2022/12/08 23:07:51;;;;;;;6.22;3.78;;;;;;;;;;10044815;29;20510;-81
2022/12/08 23:12:54;;;;;;;5.07;2.80;;;;;;;;;;10030210;29;20049;-81
2022/12/08 23:17:59;;;;;;;3.42;2.58;;;;;;;;;;10029974;29;20052;-82
2022/12/08 23:23:03;;;;;;;3.58;2.33;;;;;;;;;;10029547;29;20045;-82
2022/12/08 23:28:07;;;;;;;4.85;2.85;;;;;;;;;;10043144;29;20082;-81
2022/12/08 23:33:10;;;;;;;3.60;2.40;;;;;;;;;;10045539;29;20060;-80
2022/12/08 23:38:15;;;;;;;4.55;2.42;;;;;;;;;;10033469;29;20501;-80
2022/12/08 23:43:19;;;;;;;3.00;2.25;;;;;;;;;;10030949;29;20083;-81
2022/12/08 23:48:22;;;;;;;4.03;2.63;;;;;;;;;;10029845;23;20201;-87
2022/12/08 23:53:28;;;;;;;3.08;2.38;;;;;;;;;;10033191;29;20145;-86
2022/12/08 23:58:32;;;;;;;5.22;3.15;;;;;;;;;;10032705;29;20281;-86
